sensor_id;sensor_type;location;lat;lon;timestamp;temperature;humidity
30069;DHT22;16894;49.456;10.644;2022-09-21T00:01:13;4.90;99.90
30069;DHT22;16894;49.456;10.644;2022-09-21T00:03:39;4.80;99.90
30069;DHT22;16894;49.456;10.644;2022-09-21T00:06:08;4.90;99.90
30069;DHT22;16894;49.456;10.644;2022-09-21T00:08:34;4.90;99.90
30069;DHT22;16894;49.456;10.644;2022-09-21T00:11:00;4.90;99.90
30069;DHT22;16894;49.456;10.644;2022-09-21T00:13:26;4.80;99.90
30069;DHT22;16894;49.456;10.644;2022-09-21T00:15:54;4.70;99.90
30069;DHT22;16894;49.456;10.644;2022-09-21T00:18:20;4.90;99.90
30069;DHT22;16894;49.456;10.644;2022-09-21T00:20:46;4.90;99.90
30069;DHT22;16894;49.456;10.644;2022-09-21T00:23:12;4.90;99.90
30069;DHT22;16894;49.456;10.644;2022-09-21T00:25:37;4.90;99.90
30069;DHT22;16894;49.456;10.644;2022-09-21T00:28:03;4.90;99.90
30069;DHT22;16894;49.456;10.644;2022-09-21T00:30:29;5.00;99.90
30069;DHT22;16894;49.456;10.644;2022-09-21T00:32:54;5.00;99.90
30069;DHT22;16894;49.456;10.644;2022-09-21T00:35:20;4.90;99.90
30069;DHT22;16894;49.456;10.644;2022-09-21T00:37:45;4.80;99.90
30069;DHT22;16894;49.456;10.644;2022-09-21T00:40:11;4.80;99.90
30069;DHT22;16894;49.456;10.644;2022-09-21T00:42:37;4.80;99.90
30069;DHT22;16894;49.456;10.644;2022-09-21T00:45:04;4.70;99.90
30069;DHT22;16894;49.456;10.644;2022-09-21T00:47:37;4.70;99.90
30069;DHT22;16894;49.456;10.644;2022-09-21T00:50:10;4.70;99.90
30069;DHT22;16894;49.456;10.644;2022-09-21T00:52:40;4.60;99.90
30069;DHT22;16894;49.456;10.644;2022-09-21T00:57:51;4.70;99.90
30069;DHT22;16894;49.456;10.644;2022-09-21T01:00:18;4.60;99.90
30069;DHT22;16894;49.456;10.644;2022-09-21T01:02:45;4.60;99.90
30069;DHT22;16894;49.456;10.644;2022-09-21T01:05:10;4.60;99.90
30069;DHT22;16894;49.456;10.644;2022-09-21T01:07:40;4.50;99.90
30069;DHT22;16894;49.456;10.644;2022-09-21T01:10:16;4.50;99.90
30069;DHT22;16894;49.456;10.644;2022-09-21T01:15:25;4.40;99.90
30069;DHT22;16894;49.456;10.644;2022-09-21T01:18:14;4.40;99.90
30069;DHT22;16894;49.456;10.644;2022-09-21T01:23:52;4.10;99.90
30069;DHT22;16894;49.456;10.644;2022-09-21T01:34:33;4.10;99.90
30069;DHT22;16894;49.456;10.644;2022-09-21T01:37:08;4.10;99.90
30069;DHT22;16894;49.456;10.644;2022-09-21T01:39:36;4.10;99.90
30069;DHT22;16894;49.456;10.644;2022-09-21T01:42:05;4.10;99.90
30069;DHT22;16894;49.456;10.644;2022-09-21T01:44:34;4.20;99.90
30069;DHT22;16894;49.456;10.644;2022-09-21T01:47:03;4.20;99.90
30069;DHT22;16894;49.456;10.644;2022-09-21T01:49:36;4.30;99.90
30069;DHT22;16894;49.456;10.644;2022-09-21T01:52:12;4.30;99.90
30069;DHT22;16894;49.456;10.644;2022-09-21T01:54:44;4.20;99.90
30069;DHT22;16894;49.456;10.644;2022-09-21T01:59:58;4.10;99.90
30069;DHT22;16894;49.456;10.644;2022-09-21T02:02:48;4.00;99.90
30069;DHT22;16894;49.456;10.644;2022-09-21T02:05:17;4.20;99.90
30069;DHT22;16894;49.456;10.644;2022-09-21T02:07:44;4.40;99.90
30069;DHT22;16894;49.456;10.644;2022-09-21T02:10:17;4.50;99.90
30069;DHT22;16894;49.456;10.644;2022-09-21T02:12:43;4.50;99.90
30069;DHT22;16894;49.456;10.644;2022-09-21T02:15:10;4.50;99.90
30069;DHT22;16894;49.456;10.644;2022-09-21T02:17:46;4.50;99.90
30069;DHT22;16894;49.456;10.644;2022-09-21T02:20:30;4.40;99.90
30069;DHT22;16894;49.456;10.644;2022-09-21T02:23:05;4.30;99.90
30069;DHT22;16894;49.456;10.644;2022-09-21T02:25:45;4.30;99.90
30069;DHT22;16894;49.456;10.644;2022-09-21T02:31:35;4.30;99.90
30069;DHT22;16894;49.456;10.644;2022-09-21T02:37:02;4.30;99.90
30069;DHT22;16894;49.456;10.644;2022-09-21T02:39:39;4.30;99.90
30069;DHT22;16894;49.456;10.644;2022-09-21T02:42:17;4.30;99.90
30069;DHT22;16894;49.456;10.644;2022-09-21T02:45:31;4.20;99.90
30069;DHT22;16894;49.456;10.644;2022-09-21T02:47:55;4.10;99.90
30069;DHT22;16894;49.456;10.644;2022-09-21T02:53:12;4.10;99.90
30069;DHT22;16894;49.456;10.644;2022-09-21T02:55:40;4.00;99.90
30069;DHT22;16894;49.456;10.644;2022-09-21T02:58:09;4.00;99.90
30069;DHT22;16894;49.456;10.644;2022-09-21T03:00:36;4.00;99.90
30069;DHT22;16894;49.456;10.644;2022-09-21T03:03:14;4.00;99.90
30069;DHT22;16894;49.456;10.644;2022-09-21T03:05:43;4.10;99.90
30069;DHT22;16894;49.456;10.644;2022-09-21T03:08:28;4.10;99.90
30069;DHT22;16894;49.456;10.644;2022-09-21T03:11:17;4.10;99.90
30069;DHT22;16894;49.456;10.644;2022-09-21T03:14:02;4.10;99.90
30069;DHT22;16894;49.456;10.644;2022-09-21T03:16:51;4.00;99.90
30069;DHT22;16894;49.456;10.644;2022-09-21T03:19:36;3.90;99.90
30069;DHT22;16894;49.456;10.644;2022-09-21T03:22:21;3.80;99.90
30069;DHT22;16894;49.456;10.644;2022-09-21T03:25:06;3.70;99.90
30069;DHT22;16894;49.456;10.644;2022-09-21T03:27:52;3.60;99.90
30069;DHT22;16894;49.456;10.644;2022-09-21T03:30:36;3.70;99.90
30069;DHT22;16894;49.456;10.644;2022-09-21T03:33:21;3.70;99.90
30069;DHT22;16894;49.456;10.644;2022-09-21T03:36:06;3.70;99.90
30069;DHT22;16894;49.456;10.644;2022-09-21T03:38:51;3.70;99.90
30069;DHT22;16894;49.456;10.644;2022-09-21T03:41:35;3.60;99.90
30069;DHT22;16894;49.456;10.644;2022-09-21T03:44:19;3.50;99.90
30069;DHT22;16894;49.456;10.644;2022-09-21T03:47:03;3.50;99.90
30069;DHT22;16894;49.456;10.644;2022-09-21T03:49:49;3.50;99.90
30069;DHT22;16894;49.456;10.644;2022-09-21T03:52:33;3.50;99.90
30069;DHT22;16894;49.456;10.644;2022-09-21T03:55:19;3.40;99.90
30069;DHT22;16894;49.456;10.644;2022-09-21T03:58:05;3.40;99.90
30069;DHT22;16894;49.456;10.644;2022-09-21T04:00:49;3.40;99.90
30069;DHT22;16894;49.456;10.644;2022-09-21T04:03:33;3.40;99.90
30069;DHT22;16894;49.456;10.644;2022-09-21T04:06:17;3.40;99.90
30069;DHT22;16894;49.456;10.644;2022-09-21T04:09:02;3.40;99.90
30069;DHT22;16894;49.456;10.644;2022-09-21T04:11:46;3.50;99.90
30069;DHT22;16894;49.456;10.644;2022-09-21T04:14:31;3.60;99.90
30069;DHT22;16894;49.456;10.644;2022-09-21T04:17:15;3.70;99.90
30069;DHT22;16894;49.456;10.644;2022-09-21T04:20:00;3.70;99.90
30069;DHT22;16894;49.456;10.644;2022-09-21T04:22:44;3.80;99.90
30069;DHT22;16894;49.456;10.644;2022-09-21T04:25:29;3.80;99.90
30069;DHT22;16894;49.456;10.644;2022-09-21T04:28:13;3.80;99.90
30069;DHT22;16894;49.456;10.644;2022-09-21T04:30:57;3.80;99.90
30069;DHT22;16894;49.456;10.644;2022-09-21T04:33:41;3.80;99.90
30069;DHT22;16894;49.456;10.644;2022-09-21T04:36:28;3.70;99.90
30069;DHT22;16894;49.456;10.644;2022-09-21T04:39:13;3.70;99.90
30069;DHT22;16894;49.456;10.644;2022-09-21T04:41:57;3.70;99.90
30069;DHT22;16894;49.456;10.644;2022-09-21T04:44:41;3.70;99.90
30069;DHT22;16894;49.456;10.644;2022-09-21T04:47:29;3.70;99.90
30069;DHT22;16894;49.456;10.644;2022-09-21T04:50:14;3.80;99.90
30069;DHT22;16894;49.456;10.644;2022-09-21T04:52:58;3.90;99.90
30069;DHT22;16894;49.456;10.644;2022-09-21T04:55:44;3.80;99.90
30069;DHT22;16894;49.456;10.644;2022-09-21T04:58:29;3.80;99.90
30069;DHT22;16894;49.456;10.644;2022-09-21T05:01:13;3.90;99.90
30069;DHT22;16894;49.456;10.644;2022-09-21T05:03:58;3.70;99.90
30069;DHT22;16894;49.456;10.644;2022-09-21T05:06:44;3.80;99.90
30069;DHT22;16894;49.456;10.644;2022-09-21T05:09:28;3.80;99.90
30069;DHT22;16894;49.456;10.644;2022-09-21T05:12:33;3.90;99.90
30069;DHT22;16894;49.456;10.644;2022-09-21T05:15:17;3.80;99.90
30069;DHT22;16894;49.456;10.644;2022-09-21T05:18:01;3.80;99.90
30069;DHT22;16894;49.456;10.644;2022-09-21T05:20:53;3.80;99.90
30069;DHT22;16894;49.456;10.644;2022-09-21T05:23:38;3.90;99.90
30069;DHT22;16894;49.456;10.644;2022-09-21T05:26:23;3.90;99.90
30069;DHT22;16894;49.456;10.644;2022-09-21T05:29:07;3.90;99.90
30069;DHT22;16894;49.456;10.644;2022-09-21T05:32:02;4.00;99.90
30069;DHT22;16894;49.456;10.644;2022-09-21T05:34:59;4.10;99.90
30069;DHT22;16894;49.456;10.644;2022-09-21T05:37:35;4.20;99.90
30069;DHT22;16894;49.456;10.644;2022-09-21T05:40:03;4.20;99.90
30069;DHT22;16894;49.456;10.644;2022-09-21T05:42:29;4.10;99.90
30069;DHT22;16894;49.456;10.644;2022-09-21T05:44:55;4.10;99.90
30069;DHT22;16894;49.456;10.644;2022-09-21T06:00:26;4.40;99.90
30069;DHT22;16894;49.456;10.644;2022-09-21T06:03:26;4.40;99.90
30069;DHT22;16894;49.456;10.644;2022-09-21T06:05:52;4.50;99.90
30069;DHT22;16894;49.456;10.644;2022-09-21T06:08:18;4.50;99.90
30069;DHT22;16894;49.456;10.644;2022-09-21T06:10:43;4.60;99.90
30069;DHT22;16894;49.456;10.644;2022-09-21T06:13:09;4.70;99.90
30069;DHT22;16894;49.456;10.644;2022-09-21T06:15:35;4.70;99.90
30069;DHT22;16894;49.456;10.644;2022-09-21T06:18:04;4.80;99.90
30069;DHT22;16894;49.456;10.644;2022-09-21T06:20:30;4.90;99.90
30069;DHT22;16894;49.456;10.644;2022-09-21T06:23:14;5.00;99.90
30069;DHT22;16894;49.456;10.644;2022-09-21T06:25:40;5.00;99.90
30069;DHT22;16894;49.456;10.644;2022-09-21T06:28:12;4.90;99.90
30069;DHT22;16894;49.456;10.644;2022-09-21T06:30:38;5.00;99.90
30069;DHT22;16894;49.456;10.644;2022-09-21T06:33:06;4.90;99.90
30069;DHT22;16894;49.456;10.644;2022-09-21T06:35:34;4.70;99.90
30069;DHT22;16894;49.456;10.644;2022-09-21T06:38:01;4.90;99.90
30069;DHT22;16894;49.456;10.644;2022-09-21T06:40:28;5.00;99.90
30069;DHT22;16894;49.456;10.644;2022-09-21T06:42:54;5.10;99.90
30069;DHT22;16894;49.456;10.644;2022-09-21T06:45:21;5.10;99.90
30069;DHT22;16894;49.456;10.644;2022-09-21T06:47:46;5.10;99.90
30069;DHT22;16894;49.456;10.644;2022-09-21T06:50:12;5.10;99.90
30069;DHT22;16894;49.456;10.644;2022-09-21T06:52:38;5.30;99.90
30069;DHT22;16894;49.456;10.644;2022-09-21T06:55:05;5.40;99.90
30069;DHT22;16894;49.456;10.644;2022-09-21T06:57:30;5.60;99.90
30069;DHT22;16894;49.456;10.644;2022-09-21T06:59:56;5.70;99.90
30069;DHT22;16894;49.456;10.644;2022-09-21T07:02:22;5.80;99.90
30069;DHT22;16894;49.456;10.644;2022-09-21T07:04:47;5.70;99.90
30069;DHT22;16894;49.456;10.644;2022-09-21T07:07:13;5.70;99.90
30069;DHT22;16894;49.456;10.644;2022-09-21T07:09:39;5.70;99.90
30069;DHT22;16894;49.456;10.644;2022-09-21T07:12:05;5.80;99.90
30069;DHT22;16894;49.456;10.644;2022-09-21T07:14:32;6.00;99.90
30069;DHT22;16894;49.456;10.644;2022-09-21T07:16:58;6.00;99.90
30069;DHT22;16894;49.456;10.644;2022-09-21T07:19:24;6.00;99.90
30069;DHT22;16894;49.456;10.644;2022-09-21T07:21:52;6.20;99.90
30069;DHT22;16894;49.456;10.644;2022-09-21T07:24:18;6.10;99.90
30069;DHT22;16894;49.456;10.644;2022-09-21T07:26:43;6.00;99.90
30069;DHT22;16894;49.456;10.644;2022-09-21T07:29:09;6.10;99.90
30069;DHT22;16894;49.456;10.644;2022-09-21T07:31:35;6.30;99.90
30069;DHT22;16894;49.456;10.644;2022-09-21T07:34:01;6.40;99.90
30069;DHT22;16894;49.456;10.644;2022-09-21T07:36:26;6.50;99.90
30069;DHT22;16894;49.456;10.644;2022-09-21T07:38:52;6.60;99.90
30069;DHT22;16894;49.456;10.644;2022-09-21T07:41:18;6.70;99.90
30069;DHT22;16894;49.456;10.644;2022-09-21T07:43:44;6.80;99.90
30069;DHT22;16894;49.456;10.644;2022-09-21T07:46:11;6.90;99.90
30069;DHT22;16894;49.456;10.644;2022-09-21T07:48:37;7.10;99.90
30069;DHT22;16894;49.456;10.644;2022-09-21T07:51:05;7.10;99.90
30069;DHT22;16894;49.456;10.644;2022-09-21T07:53:42;7.30;99.90
30069;DHT22;16894;49.456;10.644;2022-09-21T07:56:13;7.30;99.90
30069;DHT22;16894;49.456;10.644;2022-09-21T07:58:39;7.30;99.90
30069;DHT22;16894;49.456;10.644;2022-09-21T08:01:24;7.50;99.90
30069;DHT22;16894;49.456;10.644;2022-09-21T08:03:51;7.70;99.90
30069;DHT22;16894;49.456;10.644;2022-09-21T08:06:18;7.90;99.90
30069;DHT22;16894;49.456;10.644;2022-09-21T08:08:44;7.80;99.90
30069;DHT22;16894;49.456;10.644;2022-09-21T08:11:14;7.80;99.90
30069;DHT22;16894;49.456;10.644;2022-09-21T08:13:39;7.80;99.90
30069;DHT22;16894;49.456;10.644;2022-09-21T08:16:05;7.90;99.90
30069;DHT22;16894;49.456;10.644;2022-09-21T08:18:31;8.00;99.90
30069;DHT22;16894;49.456;10.644;2022-09-21T08:21:00;8.00;99.90
30069;DHT22;16894;49.456;10.644;2022-09-21T08:23:26;8.20;99.90
30069;DHT22;16894;49.456;10.644;2022-09-21T08:26:01;8.40;99.90
30069;DHT22;16894;49.456;10.644;2022-09-21T08:28:27;8.50;99.90
30069;DHT22;16894;49.456;10.644;2022-09-21T08:30:53;8.50;99.90
30069;DHT22;16894;49.456;10.644;2022-09-21T08:33:23;8.50;99.90
30069;DHT22;16894;49.456;10.644;2022-09-21T08:35:56;8.70;99.90
30069;DHT22;16894;49.456;10.644;2022-09-21T08:38:22;8.40;99.90
30069;DHT22;16894;49.456;10.644;2022-09-21T08:40:48;8.50;99.90
30069;DHT22;16894;49.456;10.644;2022-09-21T08:43:21;8.60;99.90
30069;DHT22;16894;49.456;10.644;2022-09-21T08:45:52;8.70;99.90
30069;DHT22;16894;49.456;10.644;2022-09-21T08:48:23;8.70;99.90
30069;DHT22;16894;49.456;10.644;2022-09-21T08:50:58;8.70;99.90
30069;DHT22;16894;49.456;10.644;2022-09-21T08:53:38;8.80;99.90
30069;DHT22;16894;49.456;10.644;2022-09-21T08:56:04;9.20;99.90
30069;DHT22;16894;49.456;10.644;2022-09-21T08:58:31;9.60;99.90
30069;DHT22;16894;49.456;10.644;2022-09-21T09:04:09;9.70;99.90
30069;DHT22;16894;49.456;10.644;2022-09-21T09:06:52;9.70;99.90
30069;DHT22;16894;49.456;10.644;2022-09-21T09:12:17;10.20;99.90
30069;DHT22;16894;49.456;10.644;2022-09-21T09:15:01;10.20;99.90
30069;DHT22;16894;49.456;10.644;2022-09-21T09:17:52;10.30;99.90
30069;DHT22;16894;49.456;10.644;2022-09-21T09:20:28;10.60;99.90
30069;DHT22;16894;49.456;10.644;2022-09-21T09:23:21;10.90;99.90
30069;DHT22;16894;49.456;10.644;2022-09-21T09:26:14;11.10;99.90
30069;DHT22;16894;49.456;10.644;2022-09-21T09:28:47;11.40;99.90
30069;DHT22;16894;49.456;10.644;2022-09-21T09:31:20;11.80;99.90
30069;DHT22;16894;49.456;10.644;2022-09-21T09:33:58;11.80;99.90
30069;DHT22;16894;49.456;10.644;2022-09-21T09:36:29;11.80;99.90
30069;DHT22;16894;49.456;10.644;2022-09-21T09:39:00;11.70;99.90
30069;DHT22;16894;49.456;10.644;2022-09-21T09:52:26;12.20;99.90
30069;DHT22;16894;49.456;10.644;2022-09-21T09:54:52;12.20;99.90
30069;DHT22;16894;49.456;10.644;2022-09-21T09:57:28;12.20;99.90
30069;DHT22;16894;49.456;10.644;2022-09-21T09:59:58;12.10;99.90
30069;DHT22;16894;49.456;10.644;2022-09-21T10:02:27;12.20;99.90
30069;DHT22;16894;49.456;10.644;2022-09-21T10:05:02;12.40;99.90
30069;DHT22;16894;49.456;10.644;2022-09-21T10:10:02;13.00;99.90
30069;DHT22;16894;49.456;10.644;2022-09-21T10:12:29;13.20;99.90
30069;DHT22;16894;49.456;10.644;2022-09-21T10:14:56;13.40;99.90
30069;DHT22;16894;49.456;10.644;2022-09-21T10:17:25;13.60;99.90
30069;DHT22;16894;49.456;10.644;2022-09-21T10:20:02;13.50;99.90
30069;DHT22;16894;49.456;10.644;2022-09-21T10:22:28;13.60;99.90
30069;DHT22;16894;49.456;10.644;2022-09-21T10:24:57;13.70;99.90
30069;DHT22;16894;49.456;10.644;2022-09-21T10:27:34;13.90;99.90
30069;DHT22;16894;49.456;10.644;2022-09-21T10:30:00;14.20;99.90
30069;DHT22;16894;49.456;10.644;2022-09-21T10:32:29;14.40;99.90
30069;DHT22;16894;49.456;10.644;2022-09-21T10:37:36;14.80;99.90
30069;DHT22;16894;49.456;10.644;2022-09-21T10:40:22;15.20;99.90
30069;DHT22;16894;49.456;10.644;2022-09-21T10:42:53;15.50;99.90
30069;DHT22;16894;49.456;10.644;2022-09-21T10:45:20;15.70;99.90
30069;DHT22;16894;49.456;10.644;2022-09-21T10:48:15;15.80;99.90
30069;DHT22;16894;49.456;10.644;2022-09-21T10:50:47;15.90;99.90
30069;DHT22;16894;49.456;10.644;2022-09-21T10:58:34;16.40;99.90
30069;DHT22;16894;49.456;10.644;2022-09-21T11:01:20;16.70;99.90
30069;DHT22;16894;49.456;10.644;2022-09-21T11:06:36;18.00;99.00
30069;DHT22;16894;49.456;10.644;2022-09-21T11:09:14;19.40;96.70
30069;DHT22;16894;49.456;10.644;2022-09-21T11:12:01;19.80;95.50
30069;DHT22;16894;49.456;10.644;2022-09-21T11:17:19;20.70;92.80
30069;DHT22;16894;49.456;10.644;2022-09-21T11:19:54;19.80;92.40
30069;DHT22;16894;49.456;10.644;2022-09-21T11:33:29;17.70;94.80
30069;DHT22;16894;49.456;10.644;2022-09-21T11:41:17;19.40;91.30
30069;DHT22;16894;49.456;10.644;2022-09-21T11:46:55;18.30;92.30
30069;DHT22;16894;49.456;10.644;2022-09-21T11:58:03;23.10;75.50
30069;DHT22;16894;49.456;10.644;2022-09-21T12:03:40;22.70;74.60
30069;DHT22;16894;49.456;10.644;2022-09-21T12:06:39;23.50;69.40
30069;DHT22;16894;49.456;10.644;2022-09-21T12:12:22;24.60;64.00
30069;DHT22;16894;49.456;10.644;2022-09-21T12:20:19;22.50;66.10
30069;DHT22;16894;49.456;10.644;2022-09-21T12:22:51;24.10;61.00
30069;DHT22;16894;49.456;10.644;2022-09-21T12:25:59;24.90;61.90
30069;DHT22;16894;49.456;10.644;2022-09-21T12:28:29;24.20;62.40
30069;DHT22;16894;49.456;10.644;2022-09-21T12:31:06;24.30;62.30
30069;DHT22;16894;49.456;10.644;2022-09-21T12:36:43;24.50;59.70
30069;DHT22;16894;49.456;10.644;2022-09-21T12:39:27;24.80;58.80
30069;DHT22;16894;49.456;10.644;2022-09-21T12:41:59;24.70;61.10
30069;DHT22;16894;49.456;10.644;2022-09-21T12:44:52;25.00;60.60
30069;DHT22;16894;49.456;10.644;2022-09-21T12:47:40;24.60;56.70
30069;DHT22;16894;49.456;10.644;2022-09-21T12:50:23;24.70;57.90
30069;DHT22;16894;49.456;10.644;2022-09-21T12:52:50;24.50;56.60
30069;DHT22;16894;49.456;10.644;2022-09-21T13:00:33;25.60;55.50
30069;DHT22;16894;49.456;10.644;2022-09-21T13:08:49;26.50;54.80
30069;DHT22;16894;49.456;10.644;2022-09-21T13:11:15;26.40;53.40
30069;DHT22;16894;49.456;10.644;2022-09-21T13:13:49;26.50;51.80
30069;DHT22;16894;49.456;10.644;2022-09-21T13:16:36;26.90;55.10
30069;DHT22;16894;49.456;10.644;2022-09-21T13:21:39;26.10;52.10
30069;DHT22;16894;49.456;10.644;2022-09-21T13:24:06;25.90;53.70
30069;DHT22;16894;49.456;10.644;2022-09-21T13:26:53;26.90;50.20
30069;DHT22;16894;49.456;10.644;2022-09-21T13:34:33;26.90;51.30
30069;DHT22;16894;49.456;10.644;2022-09-21T13:37:12;26.70;52.10
30069;DHT22;16894;49.456;10.644;2022-09-21T13:47:43;26.60;50.50
30069;DHT22;16894;49.456;10.644;2022-09-21T13:52:53;26.00;50.10
30069;DHT22;16894;49.456;10.644;2022-09-21T13:55:40;25.70;50.50
30069;DHT22;16894;49.456;10.644;2022-09-21T13:58:20;26.30;54.10
30069;DHT22;16894;49.456;10.644;2022-09-21T14:00:55;27.70;50.20
30069;DHT22;16894;49.456;10.644;2022-09-21T14:03:33;27.60;51.40
30069;DHT22;16894;49.456;10.644;2022-09-21T14:06:10;28.40;49.90
30069;DHT22;16894;49.456;10.644;2022-09-21T14:08:39;28.40;49.60
30069;DHT22;16894;49.456;10.644;2022-09-21T14:11:16;28.90;49.40
30069;DHT22;16894;49.456;10.644;2022-09-21T14:19:01;28.20;48.90
30069;DHT22;16894;49.456;10.644;2022-09-21T14:21:27;27.70;49.20
30069;DHT22;16894;49.456;10.644;2022-09-21T14:31:40;28.20;50.40
30069;DHT22;16894;49.456;10.644;2022-09-21T14:34:14;27.10;50.80
30069;DHT22;16894;49.456;10.644;2022-09-21T14:36:44;27.30;49.40
30069;DHT22;16894;49.456;10.644;2022-09-21T14:39:36;26.90;50.00
30069;DHT22;16894;49.456;10.644;2022-09-21T14:42:08;25.70;50.30
30069;DHT22;16894;49.456;10.644;2022-09-21T14:44:38;25.40;52.10
30069;DHT22;16894;49.456;10.644;2022-09-21T14:56:01;25.70;53.40
30069;DHT22;16894;49.456;10.644;2022-09-21T14:58:49;25.60;53.80
30069;DHT22;16894;49.456;10.644;2022-09-21T15:01:37;26.50;52.30
30069;DHT22;16894;49.456;10.644;2022-09-21T15:07:23;24.70;52.90
30069;DHT22;16894;49.456;10.644;2022-09-21T15:10:23;22.80;56.40
30069;DHT22;16894;49.456;10.644;2022-09-21T15:19:13;18.30;67.60
30069;DHT22;16894;49.456;10.644;2022-09-21T15:21:42;17.60;69.00
30069;DHT22;16894;49.456;10.644;2022-09-21T15:24:29;17.10;70.70
30069;DHT22;16894;49.456;10.644;2022-09-21T15:27:05;16.90;72.20
30069;DHT22;16894;49.456;10.644;2022-09-21T15:29:32;16.70;70.80
30069;DHT22;16894;49.456;10.644;2022-09-21T15:31:59;16.50;72.50
30069;DHT22;16894;49.456;10.644;2022-09-21T15:34:25;16.30;74.90
30069;DHT22;16894;49.456;10.644;2022-09-21T15:36:51;16.00;74.60
30069;DHT22;16894;49.456;10.644;2022-09-21T15:39:35;15.70;75.30
30069;DHT22;16894;49.456;10.644;2022-09-21T15:42:13;15.60;74.80
30069;DHT22;16894;49.456;10.644;2022-09-21T15:44:42;15.40;73.70
30069;DHT22;16894;49.456;10.644;2022-09-21T15:47:14;15.30;75.10
30069;DHT22;16894;49.456;10.644;2022-09-21T15:49:41;15.20;75.70
30069;DHT22;16894;49.456;10.644;2022-09-21T15:54:47;14.90;77.30
30069;DHT22;16894;49.456;10.644;2022-09-21T16:00:29;14.70;78.10
30069;DHT22;16894;49.456;10.644;2022-09-21T16:03:15;14.60;79.10
30069;DHT22;16894;49.456;10.644;2022-09-21T16:05:49;14.50;80.40
30069;DHT22;16894;49.456;10.644;2022-09-21T16:10:42;14.40;81.80
30069;DHT22;16894;49.456;10.644;2022-09-21T16:13:09;14.30;81.10
30069;DHT22;16894;49.456;10.644;2022-09-21T16:16:04;14.20;84.00
30069;DHT22;16894;49.456;10.644;2022-09-21T16:18:53;14.10;83.00
30069;DHT22;16894;49.456;10.644;2022-09-21T16:23:50;14.00;85.70
30069;DHT22;16894;49.456;10.644;2022-09-21T16:26:21;13.90;84.90
30069;DHT22;16894;49.456;10.644;2022-09-21T16:28:47;13.80;84.20
30069;DHT22;16894;49.456;10.644;2022-09-21T16:31:33;13.70;88.00
30069;DHT22;16894;49.456;10.644;2022-09-21T16:34:50;13.60;87.60
30069;DHT22;16894;49.456;10.644;2022-09-21T16:36:52;13.60;86.60
30069;DHT22;16894;49.456;10.644;2022-09-21T16:39:19;13.50;88.90
30069;DHT22;16894;49.456;10.644;2022-09-21T16:44:19;13.30;90.70
30069;DHT22;16894;49.456;10.644;2022-09-21T16:46:46;13.30;92.50
30069;DHT22;16894;49.456;10.644;2022-09-21T16:49:15;13.10;91.90
30069;DHT22;16894;49.456;10.644;2022-09-21T16:51:45;13.10;93.40
30069;DHT22;16894;49.456;10.644;2022-09-21T16:54:11;13.00;94.00
30069;DHT22;16894;49.456;10.644;2022-09-21T16:56:38;12.90;95.20
30069;DHT22;16894;49.456;10.644;2022-09-21T16:59:15;12.90;96.30
30069;DHT22;16894;49.456;10.644;2022-09-21T17:01:41;12.80;98.10
30069;DHT22;16894;49.456;10.644;2022-09-21T17:04:08;12.70;99.60
30069;DHT22;16894;49.456;10.644;2022-09-21T17:06:38;12.70;99.90
30069;DHT22;16894;49.456;10.644;2022-09-21T17:09:23;12.60;99.90
30069;DHT22;16894;49.456;10.644;2022-09-21T17:11:49;12.60;99.90
30069;DHT22;16894;49.456;10.644;2022-09-21T17:14:17;12.60;99.90
30069;DHT22;16894;49.456;10.644;2022-09-21T17:16:54;12.50;99.90
30069;DHT22;16894;49.456;10.644;2022-09-21T17:19:21;12.30;99.90
30069;DHT22;16894;49.456;10.644;2022-09-21T17:21:47;12.30;99.90
30069;DHT22;16894;49.456;10.644;2022-09-21T17:24:14;12.20;99.90
30069;DHT22;16894;49.456;10.644;2022-09-21T17:26:40;12.00;99.90
30069;DHT22;16894;49.456;10.644;2022-09-21T17:29:24;11.90;99.90
30069;DHT22;16894;49.456;10.644;2022-09-21T17:31:56;11.80;99.90
30069;DHT22;16894;49.456;10.644;2022-09-21T17:34:27;11.60;99.90
30069;DHT22;16894;49.456;10.644;2022-09-21T17:36:54;11.50;99.90
30069;DHT22;16894;49.456;10.644;2022-09-21T17:39:20;11.30;99.90
30069;DHT22;16894;49.456;10.644;2022-09-21T17:42:01;11.10;99.90
30069;DHT22;16894;49.456;10.644;2022-09-21T17:44:57;11.00;99.90
30069;DHT22;16894;49.456;10.644;2022-09-21T17:47:28;10.90;99.90
30069;DHT22;16894;49.456;10.644;2022-09-21T17:52:36;10.70;99.90
30069;DHT22;16894;49.456;10.644;2022-09-21T17:55:20;10.60;99.90
30069;DHT22;16894;49.456;10.644;2022-09-21T18:00:23;10.40;99.90
30069;DHT22;16894;49.456;10.644;2022-09-21T18:02:49;10.30;99.90
30069;DHT22;16894;49.456;10.644;2022-09-21T18:05:27;10.20;99.90
30069;DHT22;16894;49.456;10.644;2022-09-21T18:07:53;10.20;99.90
30069;DHT22;16894;49.456;10.644;2022-09-21T18:10:20;10.10;99.90
30069;DHT22;16894;49.456;10.644;2022-09-21T18:15:39;9.90;99.90
30069;DHT22;16894;49.456;10.644;2022-09-21T18:18:18;9.90;99.90
30069;DHT22;16894;49.456;10.644;2022-09-21T18:21:04;9.80;99.90
30069;DHT22;16894;49.456;10.644;2022-09-21T18:26:07;9.60;99.90
30069;DHT22;16894;49.456;10.644;2022-09-21T18:28:43;9.60;99.90
30069;DHT22;16894;49.456;10.644;2022-09-21T18:31:31;9.50;99.90
30069;DHT22;16894;49.456;10.644;2022-09-21T18:45:27;9.10;99.90
30069;DHT22;16894;49.456;10.644;2022-09-21T18:53:44;9.00;99.90
30069;DHT22;16894;49.456;10.644;2022-09-21T18:56:11;8.80;99.90
30069;DHT22;16894;49.456;10.644;2022-09-21T18:58:37;8.80;99.90
30069;DHT22;16894;49.456;10.644;2022-09-21T19:01:04;8.80;99.90
30069;DHT22;16894;49.456;10.644;2022-09-21T19:03:31;8.80;99.90
30069;DHT22;16894;49.456;10.644;2022-09-21T19:09:17;8.60;99.90
30069;DHT22;16894;49.456;10.644;2022-09-21T19:15:08;8.60;99.90
30069;DHT22;16894;49.456;10.644;2022-09-21T19:23:35;8.40;99.90
30069;DHT22;16894;49.456;10.644;2022-09-21T19:31:22;8.20;99.90
30069;DHT22;16894;49.456;10.644;2022-09-21T19:33:48;8.10;99.90
30069;DHT22;16894;49.456;10.644;2022-09-21T19:36:14;8.10;99.90
30069;DHT22;16894;49.456;10.644;2022-09-21T19:38:39;8.10;99.90
30069;DHT22;16894;49.456;10.644;2022-09-21T19:41:30;8.10;99.90
30069;DHT22;16894;49.456;10.644;2022-09-21T19:47:29;8.00;99.90
30069;DHT22;16894;49.456;10.644;2022-09-21T19:50:17;8.00;99.90
30069;DHT22;16894;49.456;10.644;2022-09-21T19:52:44;7.80;99.90
30069;DHT22;16894;49.456;10.644;2022-09-21T19:55:13;7.60;99.90
30069;DHT22;16894;49.456;10.644;2022-09-21T19:57:58;7.60;99.90
30069;DHT22;16894;49.456;10.644;2022-09-21T20:00:42;7.50;99.90
30069;DHT22;16894;49.456;10.644;2022-09-21T20:03:17;7.50;99.90
30069;DHT22;16894;49.456;10.644;2022-09-21T20:06:02;7.50;99.90
30069;DHT22;16894;49.456;10.644;2022-09-21T20:11:12;7.40;99.90